sensor_id;sensor_type;location;lat;lon;timestamp;pressure;altitude;pressure_sealevel;temperature;humidity
68525;BME280;55524;51.380;13.372;2023-05-21T00:01:05;100835.75;;;13.58;100.00
68525;BME280;55524;51.380;13.372;2023-05-21T00:03:32;100835.63;;;13.61;100.00
68525;BME280;55524;51.380;13.372;2023-05-21T00:05:58;100826.66;;;13.63;100.00
68525;BME280;55524;51.380;13.372;2023-05-21T00:08:26;100830.25;;;13.62;100.00
68525;BME280;55524;51.380;13.372;2023-05-21T00:10:53;100822.63;;;13.55;100.00
68525;BME280;55524;51.380;13.372;2023-05-21T00:13:19;100818.19;;;13.55;100.00
68525;BME280;55524;51.380;13.372;2023-05-21T00:15:45;100820.03;;;13.53;100.00
68525;BME280;55524;51.380;13.372;2023-05-21T00:18:12;100812.25;;;13.48;100.00
68525;BME280;55524;51.380;13.372;2023-05-21T00:20:38;100816.84;;;13.45;100.00
68525;BME280;55524;51.380;13.372;2023-05-21T00:23:06;100815.97;;;13.44;100.00
68525;BME280;55524;51.380;13.372;2023-05-21T00:25:32;100806.28;;;13.43;100.00
68525;BME280;55524;51.380;13.372;2023-05-21T00:27:59;100811.66;;;13.42;100.00
68525;BME280;55524;51.380;13.372;2023-05-21T00:30:25;100806.44;;;13.40;100.00
68525;BME280;55524;51.380;13.372;2023-05-21T00:32:51;100800.19;;;13.41;100.00
68525;BME280;55524;51.380;13.372;2023-05-21T00:35:18;100800.59;;;13.32;100.00
68525;BME280;55524;51.380;13.372;2023-05-21T00:37:44;100810.25;;;13.33;100.00
68525;BME280;55524;51.380;13.372;2023-05-21T00:40:12;100799.78;;;13.30;100.00
68525;BME280;55524;51.380;13.372;2023-05-21T00:42:39;100806.00;;;13.29;100.00
68525;BME280;55524;51.380;13.372;2023-05-21T00:45:07;100804.31;;;13.28;100.00
68525;BME280;55524;51.380;13.372;2023-05-21T00:47:34;100796.53;;;13.23;100.00
68525;BME280;55524;51.380;13.372;2023-05-21T00:50:02;100798.41;;;13.20;100.00
68525;BME280;55524;51.380;13.372;2023-05-21T00:52:29;100798.66;;;13.14;100.00
68525;BME280;55524;51.380;13.372;2023-05-21T00:54:55;100797.81;;;13.13;100.00
68525;BME280;55524;51.380;13.372;2023-05-21T00:57:23;100783.97;;;13.07;100.00
68525;BME280;55524;51.380;13.372;2023-05-21T00:59:51;100786.41;;;13.11;100.00
68525;BME280;55524;51.380;13.372;2023-05-21T01:02:18;100775.91;;;13.08;100.00
68525;BME280;55524;51.380;13.372;2023-05-21T01:04:45;100781.66;;;12.97;100.00
68525;BME280;55524;51.380;13.372;2023-05-21T01:07:11;100776.25;;;13.00;100.00
68525;BME280;55524;51.380;13.372;2023-05-21T01:09:40;100775.56;;;12.95;100.00
68525;BME280;55524;51.380;13.372;2023-05-21T01:12:07;100776.56;;;12.93;100.00
68525;BME280;55524;51.380;13.372;2023-05-21T01:14:36;100773.25;;;12.88;100.00
68525;BME280;55524;51.380;13.372;2023-05-21T01:17:04;100768.78;;;12.88;100.00
68525;BME280;55524;51.380;13.372;2023-05-21T01:19:31;100767.94;;;12.88;100.00
68525;BME280;55524;51.380;13.372;2023-05-21T01:22:05;100768.19;;;12.82;100.00
68525;BME280;55524;51.380;13.372;2023-05-21T01:24:32;100764.59;;;12.83;100.00
68525;BME280;55524;51.380;13.372;2023-05-21T01:27:01;100768.13;;;12.83;100.00
68525;BME280;55524;51.380;13.372;2023-05-21T01:29:28;100771.56;;;12.85;100.00
68525;BME280;55524;51.380;13.372;2023-05-21T01:32:26;100767.09;;;12.87;100.00
68525;BME280;55524;51.380;13.372;2023-05-21T01:37:43;100765.41;;;12.85;100.00
68525;BME280;55524;51.380;13.372;2023-05-21T01:40:28;100762.84;;;12.83;100.00
68525;BME280;55524;51.380;13.372;2023-05-21T01:42:57;100761.16;;;12.80;100.00
68525;BME280;55524;51.380;13.372;2023-05-21T01:45:25;100765.47;;;12.83;100.00
68525;BME280;55524;51.380;13.372;2023-05-21T01:47:54;100760.50;;;12.75;100.00
68525;BME280;55524;51.380;13.372;2023-05-21T01:50:23;100763.19;;;12.74;100.00
68525;BME280;55524;51.380;13.372;2023-05-21T01:52:54;100763.25;;;12.72;100.00
68525;BME280;55524;51.380;13.372;2023-05-21T01:55:26;100760.53;;;12.74;100.00
68525;BME280;55524;51.380;13.372;2023-05-21T01:57:54;100769.44;;;12.73;100.00
68525;BME280;55524;51.380;13.372;2023-05-21T02:00:21;100760.66;;;12.71;100.00
68525;BME280;55524;51.380;13.372;2023-05-21T02:02:48;100774.97;;;12.67;100.00
68525;BME280;55524;51.380;13.372;2023-05-21T02:05:15;100765.19;;;12.69;100.00
68525;BME280;55524;51.380;13.372;2023-05-21T02:07:41;100762.44;;;12.70;100.00
68525;BME280;55524;51.380;13.372;2023-05-21T02:10:09;100758.00;;;12.71;100.00
68525;BME280;55524;51.380;13.372;2023-05-21T02:12:36;100754.50;;;12.70;100.00
68525;BME280;55524;51.380;13.372;2023-05-21T02:15:02;100761.72;;;12.67;100.00
68525;BME280;55524;51.380;13.372;2023-05-21T02:17:29;100758.19;;;12.66;100.00
68525;BME280;55524;51.380;13.372;2023-05-21T02:19:59;100764.44;;;12.65;100.00
68525;BME280;55524;51.380;13.372;2023-05-21T02:22:45;100765.91;;;12.72;100.00
68525;BME280;55524;51.380;13.372;2023-05-21T02:25:17;100767.00;;;12.67;100.00
68525;BME280;55524;51.380;13.372;2023-05-21T02:27:44;100756.34;;;12.68;100.00
68525;BME280;55524;51.380;13.372;2023-05-21T02:30:13;100761.97;;;12.61;100.00
68525;BME280;55524;51.380;13.372;2023-05-21T02:32:40;100761.84;;;12.64;100.00
68525;BME280;55524;51.380;13.372;2023-05-21T02:35:08;100760.31;;;12.58;100.00
68525;BME280;55524;51.380;13.372;2023-05-21T02:37:36;100756.91;;;12.54;100.00
68525;BME280;55524;51.380;13.372;2023-05-21T02:40:03;100755.25;;;12.52;100.00
68525;BME280;55524;51.380;13.372;2023-05-21T02:42:35;100763.25;;;12.50;100.00
68525;BME280;55524;51.380;13.372;2023-05-21T02:45:01;100756.97;;;12.53;100.00
68525;BME280;55524;51.380;13.372;2023-05-21T02:47:28;100757.09;;;12.50;100.00
68525;BME280;55524;51.380;13.372;2023-05-21T02:49:54;100745.75;;;12.46;100.00
68525;BME280;55524;51.380;13.372;2023-05-21T02:52:23;100752.84;;;12.46;100.00
68525;BME280;55524;51.380;13.372;2023-05-21T02:54:50;100743.91;;;12.48;100.00
68525;BME280;55524;51.380;13.372;2023-05-21T02:57:16;100740.59;;;12.43;100.00
68525;BME280;55524;51.380;13.372;2023-05-21T02:59:44;100746.00;;;12.40;100.00
68525;BME280;55524;51.380;13.372;2023-05-21T03:02:11;100746.75;;;12.44;100.00
68525;BME280;55524;51.380;13.372;2023-05-21T03:04:37;100739.84;;;12.40;100.00
68525;BME280;55524;51.380;13.372;2023-05-21T03:07:04;100747.72;;;12.41;100.00
68525;BME280;55524;51.380;13.372;2023-05-21T03:09:31;100745.09;;;12.41;100.00
68525;BME280;55524;51.380;13.372;2023-05-21T03:11:57;100738.25;;;12.36;100.00
68525;BME280;55524;51.380;13.372;2023-05-21T03:14:23;100738.00;;;12.42;100.00
68525;BME280;55524;51.380;13.372;2023-05-21T03:16:49;100740.81;;;12.37;100.00
68525;BME280;55524;51.380;13.372;2023-05-21T03:19:16;100743.41;;;12.39;100.00
68525;BME280;55524;51.380;13.372;2023-05-21T03:21:42;100749.63;;;12.38;100.00
68525;BME280;55524;51.380;13.372;2023-05-21T03:24:09;100752.91;;;12.44;100.00
68525;BME280;55524;51.380;13.372;2023-05-21T03:26:38;100746.00;;;12.40;100.00
68525;BME280;55524;51.380;13.372;2023-05-21T03:29:04;100751.50;;;12.36;100.00
68525;BME280;55524;51.380;13.372;2023-05-21T03:31:31;100750.56;;;12.37;100.00
68525;BME280;55524;51.380;13.372;2023-05-21T03:33:57;100745.16;;;12.40;100.00
68525;BME280;55524;51.380;13.372;2023-05-21T03:36:23;100741.56;;;12.41;100.00
68525;BME280;55524;51.380;13.372;2023-05-21T03:38:50;100748.66;;;12.40;100.00
68525;BME280;55524;51.380;13.372;2023-05-21T03:41:16;100747.63;;;12.44;100.00
68525;BME280;55524;51.380;13.372;2023-05-21T03:43:42;100743.28;;;12.42;100.00
68525;BME280;55524;51.380;13.372;2023-05-21T03:46:09;100746.00;;;12.40;100.00
68525;BME280;55524;51.380;13.372;2023-05-21T03:48:35;100733.53;;;12.42;100.00
68525;BME280;55524;51.380;13.372;2023-05-21T03:51:01;100740.41;;;12.48;100.00
68525;BME280;55524;51.380;13.372;2023-05-21T03:53:27;100741.38;;;12.45;100.00
68525;BME280;55524;51.380;13.372;2023-05-21T03:55:54;100742.19;;;12.47;100.00
68525;BME280;55524;51.380;13.372;2023-05-21T03:58:21;100742.19;;;12.47;100.00
68525;BME280;55524;51.380;13.372;2023-05-21T04:00:48;100743.97;;;12.47;100.00
68525;BME280;55524;51.380;13.372;2023-05-21T04:03:14;100747.34;;;12.50;100.00
68525;BME280;55524;51.380;13.372;2023-05-21T04:05:44;100746.50;;;12.50;100.00
68525;BME280;55524;51.380;13.372;2023-05-21T04:08:10;100751.78;;;12.50;100.00
68525;BME280;55524;51.380;13.372;2023-05-21T04:10:36;100744.50;;;12.55;100.00
68525;BME280;55524;51.380;13.372;2023-05-21T04:13:03;100739.91;;;12.60;100.00
68525;BME280;55524;51.380;13.372;2023-05-21T04:15:32;100746.06;;;12.61;100.00
68525;BME280;55524;51.380;13.372;2023-05-21T04:18:00;100745.13;;;12.62;100.00
68525;BME280;55524;51.380;13.372;2023-05-21T04:20:26;100757.97;;;12.72;100.00
68525;BME280;55524;51.380;13.372;2023-05-21T04:22:53;100749.16;;;12.72;100.00
68525;BME280;55524;51.380;13.372;2023-05-21T04:25:19;100750.78;;;12.74;100.00
68525;BME280;55524;51.380;13.372;2023-05-21T04:27:47;100748.41;;;12.68;100.00
68525;BME280;55524;51.380;13.372;2023-05-21T04:30:15;100747.91;;;12.80;100.00
68525;BME280;55524;51.380;13.372;2023-05-21T04:32:41;100751.28;;;12.84;100.00
68525;BME280;55524;51.380;13.372;2023-05-21T04:35:11;100747.50;;;12.90;100.00
68525;BME280;55524;51.380;13.372;2023-05-21T04:37:37;100741.00;;;12.97;100.00
68525;BME280;55524;51.380;13.372;2023-05-21T04:40:12;100743.59;;;12.98;100.00
68525;BME280;55524;51.380;13.372;2023-05-21T04:42:46;100745.34;;;12.99;100.00
68525;BME280;55524;51.380;13.372;2023-05-21T04:45:13;100739.75;;;13.05;100.00
68525;BME280;55524;51.380;13.372;2023-05-21T04:47:41;100748.94;;;13.19;100.00
68525;BME280;55524;51.380;13.372;2023-05-21T04:50:08;100744.53;;;13.18;100.00
68525;BME280;55524;51.380;13.372;2023-05-21T04:52:37;100748.63;;;13.26;100.00
68525;BME280;55524;51.380;13.372;2023-05-21T04:55:06;100748.09;;;13.39;100.00
68525;BME280;55524;51.380;13.372;2023-05-21T04:57:32;100751.06;;;13.51;100.00
68525;BME280;55524;51.380;13.372;2023-05-21T04:59:59;100750.78;;;13.58;100.00
68525;BME280;55524;51.380;13.372;2023-05-21T05:02:25;100744.03;;;13.69;100.00
68525;BME280;55524;51.380;13.372;2023-05-21T05:04:51;100740.13;;;13.78;100.00
68525;BME280;55524;51.380;13.372;2023-05-21T05:07:18;100738.84;;;13.87;100.00
68525;BME280;55524;51.380;13.372;2023-05-21T05:09:44;100736.34;;;14.02;100.00
68525;BME280;55524;51.380;13.372;2023-05-21T05:12:10;100737.78;;;14.10;100.00
68525;BME280;55524;51.380;13.372;2023-05-21T05:14:37;100736.38;;;14.20;100.00
68525;BME280;55524;51.380;13.372;2023-05-21T05:17:04;100735.25;;;14.25;100.00
68525;BME280;55524;51.380;13.372;2023-05-21T05:19:34;100739.31;;;14.51;100.00
68525;BME280;55524;51.380;13.372;2023-05-21T05:22:00;100742.25;;;14.45;100.00
68525;BME280;55524;51.380;13.372;2023-05-21T05:24:27;100740.22;;;14.69;100.00
68525;BME280;55524;51.380;13.372;2023-05-21T05:26:53;100747.97;;;14.74;100.00
68525;BME280;55524;51.380;13.372;2023-05-21T05:29:19;100745.78;;;14.82;100.00
68525;BME280;55524;51.380;13.372;2023-05-21T05:31:46;100743.84;;;15.03;100.00
68525;BME280;55524;51.380;13.372;2023-05-21T05:34:12;100736.66;;;15.05;100.00
68525;BME280;55524;51.380;13.372;2023-05-21T05:36:39;100730.75;;;15.16;100.00
68525;BME280;55524;51.380;13.372;2023-05-21T05:39:05;100742.09;;;15.19;100.00
68525;BME280;55524;51.380;13.372;2023-05-21T05:41:32;100741.81;;;15.25;100.00
68525;BME280;55524;51.380;13.372;2023-05-21T05:43:59;100739.75;;;15.31;100.00
68525;BME280;55524;51.380;13.372;2023-05-21T05:46:25;100732.16;;;15.40;100.00
68525;BME280;55524;51.380;13.372;2023-05-21T05:48:52;100737.34;;;15.59;100.00
68525;BME280;55524;51.380;13.372;2023-05-21T05:51:18;100734.59;;;15.78;100.00
68525;BME280;55524;51.380;13.372;2023-05-21T05:53:44;100731.78;;;15.97;99.99
68525;BME280;55524;51.380;13.372;2023-05-21T05:56:11;100735.91;;;16.03;99.25
68525;BME280;55524;51.380;13.372;2023-05-21T05:58:37;100734.28;;;16.16;98.45
68525;BME280;55524;51.380;13.372;2023-05-21T06:01:03;100729.66;;;16.35;97.55
68525;BME280;55524;51.380;13.372;2023-05-21T06:03:30;100730.66;;;16.48;96.70
68525;BME280;55524;51.380;13.372;2023-05-21T06:05:56;100725.06;;;16.53;95.64
68525;BME280;55524;51.380;13.372;2023-05-21T06:08:23;100726.25;;;16.63;94.65
68525;BME280;55524;51.380;13.372;2023-05-21T06:10:49;100726.56;;;16.89;94.54
68525;BME280;55524;51.380;13.372;2023-05-21T06:13:16;100728.94;;;16.93;93.28
68525;BME280;55524;51.380;13.372;2023-05-21T06:15:42;100721.34;;;17.02;92.57
68525;BME280;55524;51.380;13.372;2023-05-21T06:18:09;100720.22;;;17.06;93.06
68525;BME280;55524;51.380;13.372;2023-05-21T06:20:36;100728.16;;;17.07;93.13
68525;BME280;55524;51.380;13.372;2023-05-21T06:23:02;100726.34;;;17.08;93.44
68525;BME280;55524;51.380;13.372;2023-05-21T06:25:28;100722.41;;;17.13;93.11
68525;BME280;55524;51.380;13.372;2023-05-21T06:27:55;100727.88;;;17.12;93.23
68525;BME280;55524;51.380;13.372;2023-05-21T06:30:22;100722.53;;;17.12;93.17
68525;BME280;55524;51.380;13.372;2023-05-21T06:32:48;100722.81;;;17.07;93.97
68525;BME280;55524;51.380;13.372;2023-05-21T06:35:15;100719.38;;;17.19;93.66
68525;BME280;55524;51.380;13.372;2023-05-21T06:37:41;100716.63;;;17.21;93.06
68525;BME280;55524;51.380;13.372;2023-05-21T06:40:08;100724.44;;;17.24;93.17
68525;BME280;55524;51.380;13.372;2023-05-21T06:42:35;100724.56;;;17.23;93.60
68525;BME280;55524;51.380;13.372;2023-05-21T06:45:01;100726.28;;;17.24;93.52
68525;BME280;55524;51.380;13.372;2023-05-21T06:47:28;100724.75;;;17.34;93.96
68525;BME280;55524;51.380;13.372;2023-05-21T06:49:54;100728.22;;;17.50;93.26
68525;BME280;55524;51.380;13.372;2023-05-21T06:52:20;100732.97;;;17.59;93.21
68525;BME280;55524;51.380;13.372;2023-05-21T06:54:47;100729.84;;;17.81;92.13
68525;BME280;55524;51.380;13.372;2023-05-21T06:57:14;100724.13;;;18.02;90.47
68525;BME280;55524;51.380;13.372;2023-05-21T06:59:41;100710.88;;;18.27;89.33
68525;BME280;55524;51.380;13.372;2023-05-21T07:02:07;100710.03;;;18.54;88.68
68525;BME280;55524;51.380;13.372;2023-05-21T07:04:33;100703.06;;;18.78;87.09
68525;BME280;55524;51.380;13.372;2023-05-21T07:07:01;100690.88;;;19.00;84.93
68525;BME280;55524;51.380;13.372;2023-05-21T07:09:30;100690.66;;;19.15;84.20
68525;BME280;55524;51.380;13.372;2023-05-21T07:11:56;100683.41;;;19.05;83.66
68525;BME280;55524;51.380;13.372;2023-05-21T07:14:24;100690.44;;;18.93;84.32
68525;BME280;55524;51.380;13.372;2023-05-21T07:16:51;100691.31;;;18.94;83.21
68525;BME280;55524;51.380;13.372;2023-05-21T07:19:18;100708.31;;;18.92;84.89
68525;BME280;55524;51.380;13.372;2023-05-21T07:21:45;100707.47;;;18.92;85.61
68525;BME280;55524;51.380;13.372;2023-05-21T07:24:12;100707.47;;;18.92;86.63
68525;BME280;55524;51.380;13.372;2023-05-21T07:26:38;100710.78;;;18.96;85.37
68525;BME280;55524;51.380;13.372;2023-05-21T07:29:05;100707.50;;;19.05;85.53
68525;BME280;55524;51.380;13.372;2023-05-21T07:31:31;100706.97;;;19.12;84.34
68525;BME280;55524;51.380;13.372;2023-05-21T07:33:58;100701.94;;;19.46;84.28
68525;BME280;55524;51.380;13.372;2023-05-21T07:36:24;100702.50;;;19.64;83.22
68525;BME280;55524;51.380;13.372;2023-05-21T07:38:51;100699.22;;;19.97;82.18
68525;BME280;55524;51.380;13.372;2023-05-21T07:41:18;100691.34;;;20.07;80.86
68525;BME280;55524;51.380;13.372;2023-05-21T07:43:44;100673.97;;;20.36;78.96
68525;BME280;55524;51.380;13.372;2023-05-21T07:46:10;100674.19;;;20.33;78.26
68525;BME280;55524;51.380;13.372;2023-05-21T07:48:36;100661.78;;;20.68;77.67
68525;BME280;55524;51.380;13.372;2023-05-21T07:51:03;100672.75;;;21.00;77.36
68525;BME280;55524;51.380;13.372;2023-05-21T07:53:30;100660.81;;;21.15;76.38
68525;BME280;55524;51.380;13.372;2023-05-21T07:55:58;100654.25;;;21.53;74.46
68525;BME280;55524;51.380;13.372;2023-05-21T07:58:24;100648.09;;;21.96;73.12
68525;BME280;55524;51.380;13.372;2023-05-21T08:00:50;100634.88;;;22.15;72.16
68525;BME280;55524;51.380;13.372;2023-05-21T08:03:17;100637.16;;;22.31;71.41
68525;BME280;55524;51.380;13.372;2023-05-21T08:05:45;100633.00;;;22.27;70.83
68525;BME280;55524;51.380;13.372;2023-05-21T08:08:19;100632.38;;;22.55;70.37
68525;BME280;55524;51.380;13.372;2023-05-21T08:10:47;100623.06;;;22.59;69.00
68525;BME280;55524;51.380;13.372;2023-05-21T08:13:14;100629.97;;;22.73;69.34
68525;BME280;55524;51.380;13.372;2023-05-21T08:15:41;100617.88;;;22.89;67.87
68525;BME280;55524;51.380;13.372;2023-05-21T08:18:07;100636.09;;;22.96;69.41
68525;BME280;55524;51.380;13.372;2023-05-21T08:20:34;100622.44;;;23.09;68.13
68525;BME280;55524;51.380;13.372;2023-05-21T08:23:01;100607.13;;;23.50;66.43
68525;BME280;55524;51.380;13.372;2023-05-21T08:25:28;100613.56;;;23.59;66.87
68525;BME280;55524;51.380;13.372;2023-05-21T08:27:54;100604.66;;;23.68;65.96
68525;BME280;55524;51.380;13.372;2023-05-21T08:30:20;100600.56;;;23.83;65.15
68525;BME280;55524;51.380;13.372;2023-05-21T08:32:48;100599.88;;;23.91;65.00
68525;BME280;55524;51.380;13.372;2023-05-21T08:35:14;100603.00;;;23.86;64.71
68525;BME280;55524;51.380;13.372;2023-05-21T08:37:41;100597.22;;;24.10;63.69
68525;BME280;55524;51.380;13.372;2023-05-21T08:40:08;100577.16;;;24.22;62.38
68525;BME280;55524;51.380;13.372;2023-05-21T08:42:44;100582.59;;;24.51;63.10
68525;BME280;55524;51.380;13.372;2023-05-21T08:45:18;100574.78;;;24.48;61.94
68525;BME280;55524;51.380;13.372;2023-05-21T08:47:45;100580.91;;;24.41;62.25
68525;BME280;55524;51.380;13.372;2023-05-21T08:50:13;100563.25;;;24.46;60.83
68525;BME280;55524;51.380;13.372;2023-05-21T08:52:42;100584.59;;;24.40;62.60
68525;BME280;55524;51.380;13.372;2023-05-21T08:55:09;100570.94;;;24.51;59.97
68525;BME280;55524;51.380;13.372;2023-05-21T08:57:36;100584.97;;;24.84;61.94
68525;BME280;55524;51.380;13.372;2023-05-21T09:00:06;100575.31;;;24.23;60.68
68525;BME280;55524;51.380;13.372;2023-05-21T09:02:34;100586.16;;;24.52;62.03
68525;BME280;55524;51.380;13.372;2023-05-21T09:05:01;100583.28;;;24.73;61.40
68525;BME280;55524;51.380;13.372;2023-05-21T09:07:33;100572.38;;;24.55;60.41
68525;BME280;55524;51.380;13.372;2023-05-21T09:10:05;100569.19;;;25.26;60.50
68525;BME280;55524;51.380;13.372;2023-05-21T09:12:34;100566.16;;;25.39;59.89
68525;BME280;55524;51.380;13.372;2023-05-21T09:15:01;100559.81;;;25.48;58.69
68525;BME280;55524;51.380;13.372;2023-05-21T09:17:28;100554.59;;;25.92;58.06
68525;BME280;55524;51.380;13.372;2023-05-21T09:22:44;100540.38;;;25.62;56.76
68525;BME280;55524;51.380;13.372;2023-05-21T09:25:15;100553.44;;;25.67;57.62
68525;BME280;55524;51.380;13.372;2023-05-21T09:27:42;100538.50;;;26.26;56.48
68525;BME280;55524;51.380;13.372;2023-05-21T09:30:13;100551.16;;;26.43;56.71
68525;BME280;55524;51.380;13.372;2023-05-21T09:32:51;100553.50;;;26.38;56.99
68525;BME280;55524;51.380;13.372;2023-05-21T09:35:28;100553.84;;;26.17;56.65
68525;BME280;55524;51.380;13.372;2023-05-21T09:37:55;100544.06;;;26.68;55.90
68525;BME280;55524;51.380;13.372;2023-05-21T09:40:23;100539.78;;;26.58;56.18
68525;BME280;55524;51.380;13.372;2023-05-21T09:42:51;100530.03;;;26.47;55.39
68525;BME280;55524;51.380;13.372;2023-05-21T09:45:25;100528.44;;;26.18;55.48
68525;BME280;55524;51.380;13.372;2023-05-21T09:47:54;100539.03;;;26.73;55.28
68525;BME280;55524;51.380;13.372;2023-05-21T09:50:25;100541.81;;;26.82;55.61
68525;BME280;55524;51.380;13.372;2023-05-21T09:52:53;100538.44;;;26.44;56.22
68525;BME280;55524;51.380;13.372;2023-05-21T09:55:24;100532.66;;;26.83;55.40
68525;BME280;55524;51.380;13.372;2023-05-21T09:57:52;100540.09;;;26.55;57.17
68525;BME280;55524;51.380;13.372;2023-05-21T10:00:28;100544.91;;;26.95;55.86
68525;BME280;55524;51.380;13.372;2023-05-21T10:02:56;100530.88;;;27.00;55.00
68525;BME280;55524;51.380;13.372;2023-05-21T10:05:27;100522.94;;;27.06;54.62
68525;BME280;55524;51.380;13.372;2023-05-21T10:08:00;100521.53;;;26.94;54.54
68525;BME280;55524;51.380;13.372;2023-05-21T10:10:30;100515.81;;;27.05;54.52
68525;BME280;55524;51.380;13.372;2023-05-21T10:13:04;100515.00;;;26.79;53.95
68525;BME280;55524;51.380;13.372;2023-05-21T10:15:39;100515.41;;;27.18;54.50
68525;BME280;55524;51.380;13.372;2023-05-21T10:18:09;100507.78;;;27.21;54.07
68525;BME280;55524;51.380;13.372;2023-05-21T10:20:37;100509.88;;;26.76;53.74
68525;BME280;55524;51.380;13.372;2023-05-21T10:23:07;100500.44;;;27.14;53.25
68525;BME280;55524;51.380;13.372;2023-05-21T10:25:34;100500.91;;;27.09;53.24
68525;BME280;55524;51.380;13.372;2023-05-21T10:28:01;100509.28;;;26.90;54.35
68525;BME280;55524;51.380;13.372;2023-05-21T10:30:28;100486.50;;;27.59;52.05
68525;BME280;55524;51.380;13.372;2023-05-21T10:32:55;100484.22;;;27.30;51.80
68525;BME280;55524;51.380;13.372;2023-05-21T10:35:22;100487.41;;;26.91;52.79
68525;BME280;55524;51.380;13.372;2023-05-21T10:37:50;100482.41;;;27.55;51.26
68525;BME280;55524;51.380;13.372;2023-05-21T10:40:18;100483.38;;;27.30;52.03
68525;BME280;55524;51.380;13.372;2023-05-21T10:53:57;100462.28;;;28.15;49.83
68525;BME280;55524;51.380;13.372;2023-05-21T10:57:19;100448.16;;;28.60;48.28
68525;BME280;55524;51.380;13.372;2023-05-21T11:00:03;100460.06;;;28.10;50.01
68525;BME280;55524;51.380;13.372;2023-05-21T11:02:51;100451.94;;;28.43;48.12
68525;BME280;55524;51.380;13.372;2023-05-21T11:05:52;100442.06;;;28.98;47.98
68525;BME280;55524;51.380;13.372;2023-05-21T11:08:29;100438.66;;;29.04;47.39
68525;BME280;55524;51.380;13.372;2023-05-21T11:11:01;100431.34;;;29.04;46.45
68525;BME280;55524;51.380;13.372;2023-05-21T11:13:43;100446.81;;;28.32;48.18
68525;BME280;55524;51.380;13.372;2023-05-21T11:16:17;100438.94;;;28.70;47.13
68525;BME280;55524;51.380;13.372;2023-05-21T11:21:14;100418.78;;;29.57;46.04
68525;BME280;55524;51.380;13.372;2023-05-21T11:23:58;100391.50;;;29.11;43.53
68525;BME280;55524;51.380;13.372;2023-05-21T11:26:28;100400.03;;;29.62;44.10
68525;BME280;55524;51.380;13.372;2023-05-21T11:29:05;100382.25;;;29.89;42.29
68525;BME280;55524;51.380;13.372;2023-05-21T11:31:33;100375.59;;;29.23;42.49
68525;BME280;55524;51.380;13.372;2023-05-21T11:34:12;100382.56;;;30.09;43.22
68525;BME280;55524;51.380;13.372;2023-05-21T11:36:45;100373.69;;;29.78;42.36
68525;BME280;55524;51.380;13.372;2023-05-21T11:39:12;100369.06;;;29.93;42.02
68525;BME280;55524;51.380;13.372;2023-05-21T11:42:00;100362.03;;;29.84;41.09
68525;BME280;55524;51.380;13.372;2023-05-21T11:44:40;100353.63;;;29.71;40.60
68525;BME280;55524;51.380;13.372;2023-05-21T11:47:15;100386.50;;;29.46;44.31
68525;BME280;55524;51.380;13.372;2023-05-21T11:49:43;100368.22;;;29.78;42.79
68525;BME280;55524;51.380;13.372;2023-05-21T11:52:10;100375.53;;;29.31;43.86
68525;BME280;55524;51.380;13.372;2023-05-21T11:54:44;100377.00;;;29.42;43.64
68525;BME280;55524;51.380;13.372;2023-05-21T11:57:13;100365.81;;;28.75;41.67
68525;BME280;55524;51.380;13.372;2023-05-21T11:59:46;100359.13;;;29.16;41.07
68525;BME280;55524;51.380;13.372;2023-05-21T12:02:20;100349.41;;;29.68;40.69
68525;BME280;55524;51.380;13.372;2023-05-21T12:04:50;100369.19;;;29.39;41.82
68525;BME280;55524;51.380;13.372;2023-05-21T12:07:17;100368.97;;;29.17;41.80
68525;BME280;55524;51.380;13.372;2023-05-21T12:09:48;100369.09;;;28.54;42.30
68525;BME280;55524;51.380;13.372;2023-05-21T12:12:19;100379.22;;;29.15;42.23
68525;BME280;55524;51.380;13.372;2023-05-21T12:14:48;100396.16;;;28.31;43.96
68525;BME280;55524;51.380;13.372;2023-05-21T12:17:20;100383.97;;;28.10;43.59
68525;BME280;55524;51.380;13.372;2023-05-21T12:19:46;100362.75;;;29.32;41.42
68525;BME280;55524;51.380;13.372;2023-05-21T12:22:13;100349.59;;;29.67;40.36
68525;BME280;55524;51.380;13.372;2023-05-21T12:24:42;100366.63;;;29.37;41.67
68525;BME280;55524;51.380;13.372;2023-05-21T12:27:10;100374.97;;;28.74;43.17
68525;BME280;55524;51.380;13.372;2023-05-21T12:29:39;100377.34;;;29.16;42.35
68525;BME280;55524;51.380;13.372;2023-05-21T12:32:08;100379.34;;;29.45;42.50
68525;BME280;55524;51.380;13.372;2023-05-21T12:34:39;100383.81;;;29.38;42.24
68525;BME280;55524;51.380;13.372;2023-05-21T12:37:07;100372.44;;;29.11;42.19
68525;BME280;55524;51.380;13.372;2023-05-21T12:39:38;100375.50;;;28.05;42.36
68525;BME280;55524;51.380;13.372;2023-05-21T12:42:04;100371.69;;;28.39;41.86
68525;BME280;55524;51.380;13.372;2023-05-21T12:44:51;100368.25;;;28.92;40.81
68525;BME280;55524;51.380;13.372;2023-05-21T12:47:27;100376.94;;;29.50;41.84
68525;BME280;55524;51.380;13.372;2023-05-21T12:50:01;100375.44;;;28.30;42.07
68525;BME280;55524;51.380;13.372;2023-05-21T12:52:28;100381.25;;;27.37;43.84
68525;BME280;55524;51.380;13.372;2023-05-21T12:55:01;100386.72;;;27.86;42.83
68525;BME280;55524;51.380;13.372;2023-05-21T12:57:37;100386.38;;;27.89;43.74
68525;BME280;55524;51.380;13.372;2023-05-21T13:00:05;100390.91;;;28.37;43.35
68525;BME280;55524;51.380;13.372;2023-05-21T13:02:34;100374.81;;;27.46;42.97